createdAt,value
2018-12-19T00:06:40.381Z,97846.91
2018-12-19T00:17:00.343Z,97828.45
2018-12-19T00:27:19.512Z,97807.15
2018-12-19T00:37:39.883Z,97777.16
2018-12-19T00:48:00.483Z,97766.68
2018-12-19T00:58:19.899Z,97787.69
2018-12-19T01:08:40.149Z,97787.28
2018-12-19T01:19:00.081Z,97793.91
2018-12-19T01:29:19.858Z,97785.51
2018-12-19T01:39:39.131Z,97777.88
2018-12-19T01:49:59.105Z,97794.95
2018-12-19T02:00:18.412Z,97795.03
2018-12-19T02:10:38.421Z,97790.06
2018-12-19T02:20:57.972Z,97777.19
2018-12-19T02:31:18.149Z,97760.41
2018-12-19T02:41:37.976Z,97745.08
2018-12-19T02:51:57.504Z,97707.06
2018-12-19T03:02:17.812Z,97675.63
2018-12-19T03:12:37.359Z,97675.91
2018-12-19T03:22:56.989Z,97664.16
2018-12-19T03:33:16.333Z,97679.67
2018-12-19T03:43:36.908Z,97688.30
2018-12-19T03:53:56.388Z,97691.92
2018-12-19T04:04:15.866Z,97690.87
2018-12-19T04:14:36.313Z,97676.17
2018-12-19T04:24:55.546Z,97651.73
2018-12-19T04:35:15.829Z,97630.87
2018-12-19T04:45:35.272Z,97621.08
2018-12-19T04:55:56.899Z,97630.50
2018-12-19T05:06:15.815Z,97642.27
2018-12-19T05:16:35.525Z,97639.70
2018-12-19T05:26:55.832Z,97635.25
2018-12-19T05:37:15.070Z,97623.32
2018-12-19T05:47:34.612Z,97620.81
2018-12-19T05:57:54.474Z,97613.36
2018-12-19T06:08:14.770Z,97595.30
2018-12-19T06:18:34.159Z,97598.61
2018-12-19T06:28:53.561Z,97582.52
2018-12-19T06:39:13.472Z,97592.31
2018-12-19T06:49:32.920Z,97609.28
2018-12-19T06:59:52.481Z,97622.95
2018-12-19T07:10:11.629Z,97613.80
2018-12-19T07:20:31.399Z,97608.36
2018-12-19T07:30:51.590Z,97626.19
2018-12-19T07:41:11.396Z,97636.64
2018-12-19T07:51:31.547Z,97632.88
2018-12-19T08:01:51.035Z,97639.98
2018-12-19T08:12:10.622Z,97639.64
2018-12-19T08:22:30.311Z,97663.31
2018-12-19T08:32:50.544Z,97671.28
2018-12-19T08:43:10.514Z,97671.28
2018-12-19T08:53:30.467Z,97689.70
2018-12-19T09:03:50.320Z,97685.66
2018-12-19T09:14:10.077Z,97717.92
2018-12-19T09:24:29.817Z,97733.53
2018-12-19T09:34:49.629Z,97748.48
2018-12-19T09:45:08.817Z,97757.25
2018-12-19T09:55:28.534Z,97756.73
2018-12-19T10:05:48.411Z,97735.56
2018-12-19T10:16:08.222Z,97735.56
2018-12-19T10:26:29.924Z,97737.22
2018-12-19T10:36:49.848Z,97726.00
2018-12-19T10:47:09.186Z,97709.03
2018-12-19T10:57:29.162Z,97709.95
2018-12-19T11:07:48.103Z,97687.29
2018-12-19T11:18:07.728Z,97679.22
2018-12-19T11:28:27.581Z,97658.58
2018-12-19T11:38:46.947Z,97640.41
2018-12-19T11:49:06.502Z,97645.54
2018-12-19T11:59:26.985Z,97637.84
2018-12-19T12:09:46.239Z,97640.38
2018-12-19T12:20:08.158Z,97638.67
2018-12-19T12:30:27.651Z,97626.16
2018-12-19T12:40:47.391Z,97621.02
2018-12-19T12:51:06.785Z,97611.69
2018-12-19T13:01:26.403Z,97598.31
2018-12-19T13:11:46.980Z,97598.52
2018-12-19T13:22:06.145Z,97592.45
2018-12-19T13:32:25.419Z,97580.89
2018-12-19T13:42:45.030Z,97566.61
2018-12-19T13:53:05.087Z,97542.54
2018-12-19T14:03:24.927Z,97539.80
2018-12-19T14:13:44.477Z,97528.73
2018-12-19T14:24:03.671Z,97559.73
2018-12-19T14:34:22.989Z,97532.87
2018-12-19T14:44:42.734Z,97517.03
2018-12-19T14:55:03.311Z,97501.75
2018-12-19T15:05:23.315Z,97497.05
2018-12-19T15:16:00.961Z,97485.93
2018-12-19T15:26:20.729Z,97473.97
2018-12-19T15:36:40.529Z,97473.97
2018-12-19T15:47:00.978Z,97495.65
2018-12-19T15:57:20.266Z,97492.65
2018-12-19T16:07:39.391Z,97474.57
2018-12-19T16:17:58.885Z,97481.44
2018-12-19T16:28:18.952Z,97481.31
2018-12-19T16:38:38.545Z,97490.41
2018-12-19T16:48:58.797Z,97481.30
2018-12-19T16:59:19.108Z,97474.35
2018-12-19T17:09:38.687Z,97452.63
2018-12-19T17:20:00.897Z,97422.25
2018-12-19T17:30:21.805Z,97400.34
2018-12-19T17:40:42.399Z,97400.34
2018-12-19T17:51:02.571Z,97400.55
2018-12-19T18:01:23.496Z,97388.31
2018-12-19T18:11:44.441Z,97385.89
2018-12-19T18:22:05.687Z,97375.48
2018-12-19T18:32:27.731Z,97368.98
2018-12-19T18:42:48.693Z,97350.53
2018-12-19T18:53:10.013Z,97350.53
2018-12-19T19:03:30.301Z,97268.88
2018-12-19T19:13:50.874Z,97268.88
2018-12-19T19:24:12.097Z,97287.49
2018-12-19T19:34:32.509Z,97292.39
2018-12-19T19:44:53.933Z,97301.33
2018-12-19T19:55:13.367Z,97316.38
2018-12-19T20:05:36.725Z,97293.12
2018-12-19T20:15:57.015Z,97293.12
2018-12-19T20:26:17.037Z,97301.56
2018-12-19T20:36:36.861Z,97277.09
2018-12-19T20:46:57.549Z,97301.13
2018-12-19T20:57:16.973Z,97320.27
2018-12-19T21:07:37.556Z,97312.14
2018-12-19T21:18:15.963Z,97311.41
2018-12-19T21:28:35.475Z,97313.81
2018-12-19T21:38:55.131Z,97291.16
2018-12-19T21:49:14.679Z,97296.19
2018-12-19T21:59:34.771Z,97287.53
2018-12-19T22:09:54.390Z,97300.42
2018-12-19T22:20:14.413Z,97300.42
2018-12-19T22:30:34.853Z,97318.17
2018-12-19T22:40:55.382Z,97314.70
2018-12-19T22:51:15.114Z,97314.70
2018-12-19T23:01:53.267Z,97303.65
2018-12-19T23:12:13.836Z,97291.44
2018-12-19T23:22:33.145Z,97302.02
2018-12-19T23:33:13.606Z,97302.02
2018-12-19T23:43:34.993Z,97302.25
2018-12-19T23:53:55.258Z,97295.72
